Time;durP1;ratioP1;P1;durP2;ratioP2;P2;SDS_P1;SDS_P2;PMS_P1;PMS_P2;Temp;Humidity;BMP_temperature;BMP_pressure;BME280_temperature;BME280_humidity;BME280_pressure;Samples;Min_cycle;Max_cycle;Signal;HPM_P1;HPM_P2
2022/02/10 00:15:11;;;;;;;12.82;10.02;;;;;;;5.80;65.90;102643.69;2089806;28;20182;-69
2022/02/10 00:20:32;;;;;;;12.77;10.43;;;;;;;5.65;66.64;102622.41;2088561;28;20356;-69
2022/02/10 00:22:48;;;;;;;13.02;10.93;;;;;;;5.89;65.80;102643.56;2089568;28;20167;-69
2022/02/10 00:34:28;;;;;;;13.43;10.80;;;;;;;5.97;64.78;102653.59;2088590;28;20656;-70
2022/02/10 00:35:36;;;;;;;12.25;10.30;;;;;;;5.92;63.81;102648.34;2089740;28;20167;-69
2022/02/10 00:36:40;;;;;;;13.07;10.25;;;;;;;5.66;63.56;102610.28;2089039;28;20171;-69
2022/02/10 00:40:31;;;;;;;12.93;9.90;;;;;;;5.80;62.50;102643.69;2089322;28;20198;-69
2022/02/10 00:41:32;;;;;;;13.43;10.43;;;;;;;5.58;61.76;102611.22;2088616;28;20621;-69
2022/02/10 00:42:32;;;;;;;11.77;9.50;;;;;;;5.74;61.37;102642.31;2088259;28;20586;-69
2022/02/10 00:43:33;;;;;;;12.30;9.93;;;;;;;5.71;61.83;102636.72;2089224;28;20183;-69
2022/02/10 00:44:34;;;;;;;12.53;9.63;;;;;;;5.16;62.78;102557.78;2088519;28;20192;-69
2022/02/10 00:45:34;;;;;;;13.00;10.33;;;;;;;5.73;63.02;102648.97;2089659;28;20688;-69
2022/02/10 00:46:35;;;;;;;10.93;9.83;;;;;;;5.71;62.21;102642.22;2089605;28;20587;-68
2022/02/10 00:47:51;;;;;;;15.77;10.07;;;;;;;4.83;62.27;102509.69;2089376;28;20539;-69
2022/02/10 00:48:51;;;;;;;12.30;9.70;;;;;;;4.56;63.22;102464.56;2089287;28;20239;-69
2022/02/10 00:49:52;;;;;;;13.03;9.40;;;;;;;4.69;63.90;102479.06;2089279;28;20182;-69
2022/02/10 00:50:53;;;;;;;11.27;9.57;;;;;;;5.29;64.14;102584.06;2089073;28;20214;-69
2022/02/10 00:51:54;;;;;;;11.03;9.33;;;;;;;5.72;63.60;102649.31;2088679;28;20185;-69
2022/02/10 00:53:04;;;;;;;14.15;9.10;;;;;;;5.66;64.17;102639.72;2089399;28;20628;-69
2022/02/10 00:54:04;;;;;;;10.57;9.27;;;;;;;5.73;64.04;102646.22;2089114;28;20159;-69
2022/02/10 00:55:05;;;;;;;9.93;8.03;;;;;;;5.69;64.02;102648.06;2088337;28;20221;-69
2022/02/10 00:56:08;;;;;;;11.53;9.07;;;;;;;5.69;64.79;102639.03;2089048;28;20194;-68
2022/02/10 00:57:09;;;;;;;10.52;9.02;;;;;;;5.70;65.21;102633.16;2089544;28;20707;-69
2022/02/10 00:58:14;;;;;;;11.27;8.97;;;;;;;5.01;64.68;102522.78;2089568;28;20623;-69
2022/02/10 01:00:19;;;;;;;11.35;9.00;;;;;;;5.71;64.17;102632.03;2088982;28;20771;-68
2022/02/10 01:10:55;;;;;;;11.15;9.60;;;;;;;5.35;65.19;102609.38;2089376;28;20165;-69
2022/02/10 01:13:30;;;;;;;11.23;9.60;;;;;;;5.43;62.19;102620.22;2088393;28;20171;-69
2022/02/10 01:30:10;;;;;;;10.98;9.77;;;;;;;5.10;66.20;102618.81;2088413;28;20193;-69
2022/02/10 01:31:11;;;;;;;11.73;10.05;;;;;;;5.11;65.97;102628.66;2088772;28;20546;-69
2022/02/10 01:32:13;;;;;;;11.97;10.70;;;;;;;5.12;66.72;102633.03;2088687;28;20224;-69
2022/02/10 01:33:13;;;;;;;14.20;11.30;;;;;;;5.07;66.47;102617.56;2088732;28;20564;-69
2022/02/10 01:34:14;;;;;;;16.60;13.97;;;;;;;5.16;67.20;102633.91;2089187;28;20207;-69
2022/02/10 01:35:20;;;;;;;15.60;13.20;;;;;;;5.15;67.19;102630.38;2088711;28;20231;-69
2022/02/10 01:36:21;;;;;;;14.55;12.70;;;;;;;5.18;66.88;102632.44;2088877;28;20195;-68
2022/02/10 01:37:21;;;;;;;13.93;12.47;;;;;;;5.19;65.96;102628.53;2088873;28;20256;-69
2022/02/10 01:38:22;;;;;;;14.83;12.43;;;;;;;4.27;66.52;102494.25;2088315;28;20292;-69
2022/02/10 01:39:29;;;;;;;15.13;12.33;;;;;;;5.15;65.27;102627.63;2089302;28;20174;-69
2022/02/10 01:57:51;;;;;;;14.52;11.30;;;;;;;4.38;61.11;102589.50;2089217;28;20780;-70
2022/02/10 02:04:02;;;;;;;13.02;11.63;;;;;;;4.24;64.12;102621.97;2088826;28;20201;-69
2022/02/10 02:05:07;;;;;;;16.40;12.13;;;;;;;4.27;65.85;102620.50;2088842;28;20177;-68
2022/02/10 02:06:18;;;;;;;15.05;12.50;;;;;;;4.24;65.95;102621.97;2089101;28;20718;-68
2022/02/10 02:07:27;;;;;;;15.50;13.13;;;;;;;4.24;66.92;102621.16;2088750;28;20161;-68
2022/02/10 02:08:31;;;;;;;15.63;13.00;;;;;;;4.26;67.26;102625.16;2088338;28;20184;-69
2022/02/10 02:09:32;;;;;;;16.80;14.23;;;;;;;4.27;67.90;102624.03;2087135;28;20180;-68
2022/02/10 02:10:32;;;;;;;15.70;12.97;;;;;;;3.20;67.31;102458.16;2080075;28;20178;-70
2022/02/10 02:11:33;;;;;;;14.97;12.90;;;;;;;4.22;67.13;102618.78;2087851;28;20183;-69
2022/02/10 02:12:33;;;;;;;17.80;14.10;;;;;;;4.34;69.18;102621.53;2087221;28;20214;-68
2022/02/10 02:13:34;;;;;;;15.30;13.67;;;;;;;4.35;68.85;102627.81;2088659;28;20235;-68
2022/02/10 02:14:37;;;;;;;13.90;12.50;;;;;;;4.36;67.90;102634.91;2088918;28;20178;-68
2022/02/10 02:15:37;;;;;;;12.93;11.32;;;;;;;4.34;68.30;102628.94;2088471;28;20671;-69
2022/02/10 02:16:56;;;;;;;14.47;12.03;;;;;;;4.34;68.40;102638.00;2087991;28;20644;-68
2022/02/10 02:17:56;;;;;;;17.15;12.38;;;;;;;4.29;68.37;102631.91;2088886;28;20658;-69
2022/02/10 02:18:57;;;;;;;13.87;11.23;;;;;;;4.29;67.44;102630.00;2088885;28;20712;-69
2022/02/10 02:19:57;;;;;;;12.40;10.97;;;;;;;4.30;67.55;102628.84;2088408;28;20250;-69
2022/02/10 02:20:59;;;;;;;12.10;10.80;;;;;;;3.97;68.34;102581.47;2086566;28;20189;-68
2022/02/10 02:22:07;;;;;;;11.63;10.38;;;;;;;4.34;67.57;102623.47;2088665;28;20238;-69
2022/02/10 02:23:08;;;;;;;13.93;10.65;;;;;;;3.54;67.76;102492.63;2088348;28;20184;-69
2022/02/10 02:24:13;;;;;;;11.80;10.60;;;;;;;3.61;68.19;102520.25;2088843;28;20209;-69
2022/02/10 02:25:32;;;;;;;13.02;11.70;;;;;;;4.31;67.86;102626.91;2088861;28;20196;-68
2022/02/10 02:26:34;;;;;;;13.52;10.88;;;;;;;3.77;67.18;102543.94;2088873;28;20169;-69
2022/02/10 02:27:50;;;;;;;12.63;10.95;;;;;;;4.18;67.72;102620.59;2088752;28;20181;-69
2022/02/10 02:28:56;;;;;;;13.15;11.55;;;;;;;4.23;68.15;102625.06;2088594;28;20201;-68
2022/02/10 02:30:10;;;;;;;14.38;11.73;;;;;;;4.20;68.53;102623.00;2088085;28;20600;-69
2022/02/10 02:31:16;;;;;;;12.45;11.15;;;;;;;4.24;68.70;102623.91;2086523;28;20240;-69
2022/02/10 02:32:23;;;;;;;13.85;11.88;;;;;;;3.61;67.91;102547.69;2088017;28;20244;-69
2022/02/10 02:35:15;;;;;;;12.65;11.32;;;;;;;4.19;67.90;102630.44;2088564;28;20185;-68
2022/02/10 02:38:33;;;;;;;12.75;11.38;;;;;;;4.19;68.00;102622.19;2088986;28;20164;-69
2022/02/10 03:06:23;;;;;;;14.98;10.50;;;;;;;3.86;67.68;102613.19;2088578;28;20187;-69
2022/02/10 03:08:25;;;;;;;13.93;11.00;;;;;;;3.09;66.90;102510.97;2088807;28;20199;-68
2022/02/10 03:09:27;;;;;;;13.35;10.85;;;;;;;3.80;66.74;102620.03;2088600;28;20620;-69
2022/02/10 03:11:00;;;;;;;14.63;11.70;;;;;;;3.83;66.60;102618.56;2087463;28;20185;-69
2022/02/10 03:12:00;;;;;;;12.95;11.30;;;;;;;3.82;66.28;102617.78;2088710;28;20219;-69
2022/02/10 03:13:02;;;;;;;13.73;11.40;;;;;;;3.80;66.85;102624.75;2088656;28;20267;-70
2022/02/10 03:14:14;;;;;;;13.02;11.57;;;;;;;3.79;67.73;102623.16;2087092;28;20176;-69
2022/02/10 03:15:25;;;;;;;13.38;11.10;;;;;;;3.24;66.74;102535.00;2087916;28;20531;-68
2022/02/10 03:16:49;;;;;;;15.02;11.48;;;;;;;3.79;66.70;102617.66;2088708;28;20218;-69
2022/02/10 03:21:02;;;;;;;13.47;11.33;;;;;;;3.79;65.72;102626.69;2088278;28;20184;-68
2022/02/10 04:03:44;;;;;;;13.43;11.90;;;;;;;2.60;65.81;102627.63;2089922;28;20206;-68
2022/02/10 04:15:34;;;;;;;13.10;11.43;;;;;;;2.54;65.59;102628.94;2089504;28;20188;-68
2022/02/10 04:16:42;;;;;;;13.95;10.77;;;;;;;2.53;65.50;102635.56;2089865;28;20191;-68
2022/02/10 04:24:12;;;;;;;16.65;11.70;;;;;;;2.46;65.72;102645.41;2096123;28;20763;-69
2022/02/10 04:26:29;;;;;;;14.65;11.48;;;;;;;2.42;65.05;102631.56;2089644;28;20220;-69
2022/02/10 04:53:21;;;;;;;18.60;13.40;;;;;;;2.20;65.86;102631.00;2088844;28;20574;-69
2022/02/10 04:54:56;;;;;;;19.98;13.48;;;;;;;2.23;65.07;102642.13;2081500;28;20172;-68
2022/02/10 04:57:39;;;;;;;18.70;12.70;;;;;;;1.95;64.75;102608.09;2087756;28;20306;-69
2022/02/10 04:59:53;;;;;;;21.45;13.32;;;;;;;2.09;65.00;102627.03;2089406;28;20719;-69
2022/02/10 05:08:23;;;;;;;19.23;12.60;;;;;;;2.00;64.54;102635.28;2080114;28;20553;-71
2022/02/10 05:19:47;;;;;;;16.65;12.13;;;;;;;1.97;65.99;102638.66;2088407;28;20291;-71
2022/02/10 05:21:09;;;;;;;19.88;12.45;;;;;;;1.53;66.25;102561.72;2088847;28;20203;-71
2022/02/10 05:23:24;;;;;;;27.23;18.25;;;;;;;2.05;65.76;102631.56;2089362;28;20570;-71
2022/02/10 05:31:20;;;;;;;14.07;11.13;;;;;;;2.03;65.52;102631.91;2089601;28;20291;-71
2022/02/10 05:33:51;;;;;;;14.20;10.57;;;;;;;1.84;64.65;102636.91;2088767;28;20595;-60
2022/02/10 05:35:04;;;;;;;13.23;10.18;;;;;;;4.05;76.02;102629.16;2088923;28;20176;-69
2022/02/10 05:36:08;;;;;;;11.73;8.30;;;;;;;7.58;75.53;102651.97;2089133;28;20548;-70
2022/02/10 05:37:09;;;;;;;8.90;7.90;;;;;;;6.96;61.46;102619.06;2089004;28;20173;-73
2022/02/10 05:38:17;;;;;;;10.27;7.83;;;;;;;5.78;55.85;102568.13;2088815;28;20179;-74
2022/02/10 05:39:23;;;;;;;10.48;8.27;;;;;;;5.50;54.42;102634.19;2088404;28;20522;-74
2022/02/10 05:52:19;;;;;;;15.65;12.75;;;;;;;3.39;62.20;102628.34;2080514;28;20177;-74
2022/02/10 06:52:47;;;;;;;46.70;33.55;;;;;;;2.92;64.05;102670.75;2083377;28;20201;-70
2022/02/10 06:55:13;;;;;;;61.80;47.45;;;;;;;3.05;64.40;102660.69;2086950;28;20182;-73
2022/02/10 07:04:10;;;;;;;72.03;50.78;;;;;;;3.45;65.26;102662.63;2084426;28;20184;-74
2022/02/10 07:12:01;;;;;;;59.83;44.58;;;;;;;2.90;65.36;102502.44;2085495;28;20186;-70
2022/02/10 07:15:53;;;;;;;63.13;45.58;;;;;;;4.14;66.02;102663.59;2087103;28;20192;-75
2022/02/10 07:48:02;;;;;;;47.55;38.28;;;;;;;5.80;64.56;102643.69;2085670;28;20304;-70
2022/02/10 07:50:38;;;;;;;43.20;34.78;;;;;;;5.88;64.46;102641.94;2089354;28;20170;-70
2022/02/10 07:53:27;;;;;;;40.50;33.33;;;;;;;5.97;63.82;102645.31;2087800;28;20171;-70
2022/02/10 07:54:38;;;;;;;42.17;34.90;;;;;;;5.45;63.74;102553.88;2086062;28;20175;-70
2022/02/10 07:57:01;;;;;;;41.70;34.65;;;;;;;6.11;63.74;102640.19;2084073;28;20191;-70
2022/02/10 08:50:34;;;;;;;18.98;14.50;;;;;;;7.48;59.03;102432.59;2087965;28;20180;-70
2022/02/10 09:05:59;;;;;;;22.20;17.53;;;;;;;9.18;58.37;102611.69;2083883;28;20200;-70
2022/02/10 09:12:11;;;;;;;22.23;17.70;;;;;;;9.45;57.69;102614.03;2089408;28;20193;-70
2022/02/10 09:18:15;;;;;;;23.42;18.20;;;;;;;9.40;57.22;102594.19;2092987;28;20206;-71
2022/02/10 09:55:47;;;;;;;15.60;13.90;;;;;;;11.20;54.11;102562.06;2087820;28;20171;-71
2022/02/10 10:00:51;;;;;;;16.30;13.83;;;;;;;10.99;53.13;102464.84;2087586;28;20449;-71
2022/02/10 10:02:05;;;;;;;15.50;13.83;;;;;;;11.72;52.60;102555.91;2082771;28;20422;-71
2022/02/10 10:03:15;;;;;;;18.53;13.30;;;;;;;11.78;52.51;102563.47;2086527;28;20503;-71
2022/02/10 10:04:26;;;;;;;14.17;12.47;;;;;;;11.87;52.16;102563.88;2080760;28;20462;-71
2022/02/10 10:05:35;;;;;;;16.30;12.57;;;;;;;11.94;52.01;102560.31;2079530;28;20415;-71
2022/02/10 10:10:55;;;;;;;13.90;12.27;;;;;;;11.92;51.54;102543.25;2079368;28;20407;-69
2022/02/10 10:12:42;;;;;;;15.00;12.43;;;;;;;11.92;51.61;102552.38;2084272;28;20443;-69
2022/02/10 10:17:03;;;;;;;14.43;11.30;;;;;;;12.01;51.60;102535.31;2082781;28;20444;-69
2022/02/10 10:19:04;;;;;;;11.57;10.03;;;;;;;12.33;51.19;102544.44;2088025;28;20511;-69
2022/02/10 10:27:28;;;;;;;14.27;11.37;;;;;;;12.77;49.96;102528.91;2086527;28;20500;-69
2022/02/10 10:49:52;;;;;;;10.00;8.57;;;;;;;13.90;47.20;102493.72;2087880;28;20536;-71
2022/02/10 10:55:33;;;;;;;11.67;9.83;;;;;;;13.80;47.61;102489.00;2084084;28;20224;-71
2022/02/10 10:56:37;;;;;;;11.53;9.90;;;;;;;13.54;47.89;102424.72;2080967;28;20302;-71
2022/02/10 10:57:40;;;;;;;13.30;9.60;;;;;;;13.97;47.64;102481.69;2084388;28;20550;-71
2022/02/10 11:38:04;;;;;;;12.60;10.80;;;;;;;14.02;47.50;102405.97;2083071;28;20422;-70
2022/02/10 11:40:19;;;;;;;13.77;10.63;;;;;;;14.22;47.57;102402.22;2087023;28;20423;-70
2022/02/10 11:42:37;;;;;;;15.77;10.30;;;;;;;14.40;47.26;102393.66;2083297;28;20496;-70
2022/02/10 11:47:28;;;;;;;11.30;10.13;;;;;;;14.49;46.70;102385.59;2086658;28;20187;-71
2022/02/10 12:01:45;;;;;;;20.87;10.93;;;;;;;15.47;44.39;102364.66;2088422;28;20509;-68
2022/02/10 12:32:09;;;;;;;21.33;10.10;;;;;;;16.56;42.19;102321.44;2090254;28;20446;-65
2022/02/10 12:43:58;;;;;;;10.53;7.47;;;;;;;17.09;40.99;102301.41;2089112;28;20431;-66
2022/02/10 14:09:06;;;;;;;10.40;5.60;;;;;;;18.74;36.38;102210.63;2089934;28;20403;-65
2022/02/10 14:10:25;;;;;;;10.67;5.87;;;;;;;17.92;36.74;102098.53;2089608;28;20395;-65
2022/02/10 14:12:57;;;;;;;7.87;5.57;;;;;;;18.57;37.02;102225.22;2088734;28;20457;-65
2022/02/10 14:14:13;;;;;;;7.73;5.70;;;;;;;18.63;36.99;102223.41;2089723;28;20477;-66
2022/02/10 14:16:59;;;;;;;9.67;5.37;;;;;;;18.38;37.09;102218.56;2084235;28;20434;-65
2022/02/10 14:17:47;;;;;;;6.20;4.83;;;;;;;18.66;36.94;102220.50;2090754;28;20199;-65
2022/02/10 14:18:54;;;;;;;6.30;4.73;;;;;;;18.78;36.68;102224.53;2089336;28;20425;-66
2022/02/10 14:19:59;;;;;;;6.53;4.67;;;;;;;18.68;36.86;102217.25;2089813;28;20934;-65
2022/02/10 14:21:06;;;;;;;6.40;4.60;;;;;;;18.70;36.81;102223.19;2089552;28;20460;-65
2022/02/10 14:25:39;;;;;;;7.57;4.33;;;;;;;18.87;36.74;102214.19;2089308;28;21007;-65
2022/02/10 14:27:03;;;;;;;8.70;5.20;;;;;;;19.09;36.19;102215.03;2089644;28;20865;-65
2022/02/10 14:28:04;;;;;;;7.00;4.70;;;;;;;18.72;36.26;102156.13;2088245;28;20421;-65
2022/02/10 14:29:04;;;;;;;8.07;4.87;;;;;;;18.56;36.28;102134.56;2089481;28;20570;-65
2022/02/10 14:30:06;;;;;;;7.67;4.80;;;;;;;19.07;36.33;102209.09;2089720;28;20211;-65
2022/02/10 14:31:06;;;;;;;8.23;5.20;;;;;;;19.14;36.24;102202.44;2089370;28;20216;-65
2022/02/10 14:32:09;;;;;;;8.90;4.47;;;;;;;19.19;36.05;102211.06;2089269;28;20433;-65
2022/02/10 14:33:10;;;;;;;6.90;5.10;;;;;;;19.22;35.63;102204.59;2089498;28;20270;-65
2022/02/10 14:34:16;;;;;;;6.87;5.03;;;;;;;18.51;35.86;102093.03;2089586;28;20419;-65
2022/02/10 14:35:23;;;;;;;6.80;5.40;;;;;;;18.83;35.94;102162.19;2089584;28;20399;-65
2022/02/10 14:36:32;;;;;;;6.30;4.63;;;;;;;19.11;36.04;102198.53;2089389;28;20879;-65
2022/02/10 14:37:52;;;;;;;6.23;4.80;;;;;;;19.11;35.98;102198.53;2087976;28;20426;-65
2022/02/10 14:40:33;;;;;;;6.63;5.03;;;;;;;19.16;36.27;102197.94;2089349;28;20427;-65
2022/02/10 14:42:06;;;;;;;6.30;4.87;;;;;;;18.97;36.29;102164.50;2089031;28;20516;-65
2022/02/10 15:12:47;;;;;;;7.77;4.90;;;;;;;17.48;38.71;102177.94;2089185;28;20440;-65
2022/02/10 15:55:02;;;;;;;8.23;4.60;;;;;;;14.14;45.72;102165.69;2090575;28;20476;-68
2022/02/10 15:56:10;;;;;;;7.40;4.90;;;;;;;14.10;45.67;102165.72;2089992;28;20434;-67
2022/02/10 16:16:56;;;;;;;8.30;4.50;;;;;;;12.85;48.45;102129.78;2090071;28;20402;-67
2022/02/10 16:17:57;;;;;;;7.10;4.90;;;;;;;13.07;48.47;102167.34;2090274;28;20410;-67
2022/02/10 16:19:01;;;;;;;7.97;4.60;;;;;;;13.05;48.33;102163.41;2089805;28;20430;-67
2022/02/10 16:20:07;;;;;;;6.93;4.67;;;;;;;13.02;48.53;102153.09;2089514;28;20872;-67
2022/02/10 16:21:09;;;;;;;8.20;4.80;;;;;;;13.02;48.63;102161.47;2088185;28;20412;-66
2022/02/10 16:23:16;;;;;;;7.53;5.00;;;;;;;12.61;48.64;102110.53;2089338;28;20417;-66
2022/02/10 16:24:20;;;;;;;8.10;4.97;;;;;;;12.90;48.91;102159.94;2090168;28;20161;-67
2022/02/10 16:25:22;;;;;;;7.37;5.17;;;;;;;12.84;48.96;102172.72;2089824;28;20453;-67
2022/02/10 16:26:28;;;;;;;8.50;5.53;;;;;;;12.78;49.19;102157.66;2089838;28;20472;-67
2022/02/10 16:27:30;;;;;;;6.77;5.07;;;;;;;12.70;49.20;102153.34;2090070;28;20957;-67
2022/02/10 16:28:35;;;;;;;7.20;5.37;;;;;;;12.66;49.33;102155.38;2089896;28;20776;-67
2022/02/10 16:29:36;;;;;;;7.60;5.33;;;;;;;12.17;49.33;102091.00;2089465;28;20476;-67
2022/02/10 16:30:38;;;;;;;7.83;5.00;;;;;;;12.71;49.43;102163.28;2089937;28;20857;-67
2022/02/10 16:31:38;;;;;;;7.00;5.00;;;;;;;12.70;49.63;102156.13;2088758;28;20416;-67
2022/02/10 16:32:40;;;;;;;9.00;4.80;;;;;;;12.67;49.67;102161.72;2089048;28;20424;-67
2022/02/10 16:33:43;;;;;;;7.10;5.07;;;;;;;12.54;49.78;102150.31;2089334;28;20207;-67
2022/02/10 16:34:44;;;;;;;6.70;5.10;;;;;;;12.23;49.78;102103.28;2089915;28;20416;-67
2022/02/10 16:35:44;;;;;;;7.40;5.23;;;;;;;12.54;49.95;102167.00;2090038;28;20419;-67
2022/02/10 16:36:46;;;;;;;6.27;4.70;;;;;;;12.52;49.88;102169.41;2089823;28;20662;-67
2022/02/10 16:37:47;;;;;;;7.03;4.43;;;;;;;12.47;50.07;102169.84;2090043;28;20187;-67
2022/02/10 16:38:47;;;;;;;8.17;5.23;;;;;;;12.04;50.10;102112.94;2089678;28;20506;-67
2022/02/10 16:39:49;;;;;;;6.73;4.70;;;;;;;11.91;50.27;102080.47;2088975;28;20184;-68
2022/02/10 16:40:49;;;;;;;6.87;4.80;;;;;;;12.40;50.50;102166.31;2087170;28;20188;-68
2022/02/10 16:41:53;;;;;;;6.87;5.10;;;;;;;12.27;50.35;102148.50;2089546;28;21068;-68
2022/02/10 16:42:53;;;;;;;7.50;5.30;;;;;;;12.38;50.44;102165.91;2089340;28;20180;-67
2022/02/10 16:43:54;;;;;;;7.23;4.63;;;;;;;12.33;50.50;102167.16;2089899;28;20994;-67
2022/02/10 16:44:54;;;;;;;9.57;5.30;;;;;;;12.32;50.52;102164.75;2089615;28;20710;-67
2022/02/10 16:45:56;;;;;;;7.00;5.07;;;;;;;12.30;50.62;102161.63;2089902;28;20173;-67
2022/02/10 16:46:57;;;;;;;8.53;5.00;;;;;;;12.14;50.92;102150.97;2089632;28;20238;-67
2022/02/10 16:47:58;;;;;;;9.87;5.00;;;;;;;12.01;50.89;102137.97;2089895;28;20422;-68
2022/02/10 16:48:58;;;;;;;7.47;5.30;;;;;;;12.16;51.03;102162.50;2089407;28;20563;-68
2022/02/10 16:50:00;;;;;;;6.40;5.17;;;;;;;12.09;51.60;102170.84;2089052;28;20873;-67
2022/02/10 16:51:01;;;;;;;10.27;5.67;;;;;;;12.00;51.44;102164.94;2088518;28;20660;-67
2022/02/10 16:52:05;;;;;;;7.67;5.53;;;;;;;11.77;51.52;102136.09;2089151;28;20902;-68
2022/02/10 16:53:10;;;;;;;7.37;5.67;;;;;;;11.94;51.88;102157.47;2089107;28;20481;-68
2022/02/10 16:54:46;;;;;;;7.93;5.40;;;;;;;10.73;51.85;101979.88;2089189;28;20431;-68
2022/02/10 16:57:20;;;;;;;9.37;6.00;;;;;;;11.22;52.37;102094.25;2093236;28;20427;-68
2022/02/10 17:00:08;;;;;;;6.77;5.00;;;;;;;11.59;52.69;102157.59;2096597;28;20445;-67
2022/02/10 17:01:30;;;;;;;7.87;5.73;;;;;;;11.61;52.92;102169.09;2094213;28;20430;-68
2022/02/10 17:14:21;;;;;;;10.90;5.47;;;;;;;11.49;52.92;102175.06;2089731;28;20387;-68
2022/02/10 17:18:26;;;;;;;11.27;6.10;;;;;;;10.55;52.87;102034.59;2089755;28;20387;-67
2022/02/10 17:25:42;;;;;;;11.23;6.10;;;;;;;11.41;53.04;102176.25;2089563;28;20391;-68
2022/02/10 17:27:53;;;;;;;8.63;6.77;;;;;;;10.40;53.05;102031.03;2089838;28;20426;-67
2022/02/10 17:28:56;;;;;;;10.67;6.43;;;;;;;11.33;53.00;102177.50;2088569;28;20415;-67
2022/02/10 17:31:07;;;;;;;10.23;7.17;;;;;;;11.32;52.80;102173.13;2088171;28;20924;-67
2022/02/10 17:36:27;;;;;;;11.67;7.43;;;;;;;10.31;52.83;102018.78;2089586;28;20187;-68
2022/02/10 17:41:19;;;;;;;11.13;7.63;;;;;;;11.15;53.18;102162.84;2089238;28;20395;-68
2022/02/10 17:51:57;;;;;;;13.60;7.97;;;;;;;10.71;52.51;102170.81;2088393;28;20384;-69
2022/02/10 17:53:14;;;;;;;12.57;8.50;;;;;;;10.64;52.83;102165.25;2088741;28;20951;-69
2022/02/10 17:54:15;;;;;;;16.27;9.53;;;;;;;10.58;53.46;102175.16;2089458;28;20827;-69
2022/02/10 17:55:17;;;;;;;13.33;8.70;;;;;;;10.34;53.29;102143.47;2089128;28;20510;-69
2022/02/10 17:56:19;;;;;;;14.43;10.00;;;;;;;10.50;53.66;102165.28;2089313;28;20161;-69
2022/02/10 17:57:19;;;;;;;13.13;10.17;;;;;;;9.20;53.99;101973.91;2089077;28;20407;-70
2022/02/10 17:58:24;;;;;;;12.80;10.17;;;;;;;10.44;54.09;102166.81;2089301;28;20419;-70
2022/02/10 17:59:25;;;;;;;12.67;9.37;;;;;;;10.43;53.96;102171.59;2088363;28;20259;-70
2022/02/10 18:00:26;;;;;;;14.20;9.93;;;;;;;10.39;54.17;102172.75;2088366;28;20411;-70
2022/02/10 18:01:28;;;;;;;13.37;9.80;;;;;;;10.38;53.96;102171.19;2087270;28;20196;-70
2022/02/10 18:02:28;;;;;;;14.33;10.90;;;;;;;10.36;54.46;102168.03;2087982;28;20172;-70
2022/02/10 18:03:29;;;;;;;13.43;10.57;;;;;;;10.34;54.53;102170.38;2088828;28;20419;-70
2022/02/10 18:04:30;;;;;;;15.20;10.30;;;;;;;10.33;54.41;102168.78;2089112;28;20208;-69
2022/02/10 18:06:44;;;;;;;11.70;9.63;;;;;;;9.29;54.66;102015.84;2089120;28;20164;-69
2022/02/10 18:07:49;;;;;;;12.77;10.07;;;;;;;10.19;54.79;102164.03;2089214;28;20932;-69
2022/02/10 18:09:26;;;;;;;14.17;11.30;;;;;;;10.24;54.62;102165.63;2088904;28;20406;-69
2022/02/10 18:15:32;;;;;;;12.80;10.30;;;;;;;9.57;54.82;102115.53;2089086;28;20443;-69
2022/02/10 18:16:39;;;;;;;17.33;10.80;;;;;;;9.96;53.94;102171.06;2089210;28;20883;-70
2022/02/10 18:17:46;;;;;;;15.77;9.77;;;;;;;9.27;53.59;102079.03;2089229;28;20466;-70
2022/02/10 18:18:53;;;;;;;19.17;9.50;;;;;;;9.82;52.53;102163.50;2089031;28;20399;-70
2022/02/10 18:19:59;;;;;;;17.30;11.03;;;;;;;9.82;54.00;102173.75;2088654;28;20391;-70
2022/02/10 18:21:11;;;;;;;14.13;11.23;;;;;;;9.60;55.32;102148.00;2087782;28;20414;-70
2022/02/10 18:25:05;;;;;;;113.87;89.57;;;;;;;9.58;56.47;102163.41;2087825;28;20492;-69
2022/02/10 18:26:11;;;;;;;143.77;114.97;;;;;;;9.62;56.67;102170.53;2088970;28;20473;-69
2022/02/10 18:33:31;;;;;;;98.00;74.60;;;;;;;9.62;56.15;102161.41;2088288;28;20415;-69
2022/02/10 18:37:49;;;;;;;78.30;61.33;;;;;;;9.33;56.02;102130.06;2088905;28;20935;-69
2022/02/10 19:01:32;;;;;;;29.03;20.90;;;;;;;9.13;56.21;102161.16;2089098;28;20398;-69
2022/02/10 19:08:20;;;;;;;101.32;75.30;;;;;;;8.26;59.57;102159.25;2090727;28;20162;-69
2022/02/10 19:09:27;;;;;;;105.40;76.93;;;;;;;7.90;59.26;102098.53;2090366;28;20155;-69
2022/02/10 19:10:28;;;;;;;103.15;77.80;;;;;;;8.26;59.44;102158.47;2090094;28;20191;-69
2022/02/10 19:11:29;;;;;;;106.53;80.57;;;;;;;8.14;59.63;102136.59;2089549;28;20233;-69
2022/02/10 19:12:41;;;;;;;116.53;89.07;;;;;;;8.22;59.68;102158.44;2089682;28;20655;-69
2022/02/10 19:13:43;;;;;;;123.00;94.93;;;;;;;8.02;59.13;102120.31;2090237;28;20160;-69
2022/02/10 19:14:58;;;;;;;125.78;99.32;;;;;;;8.23;58.97;102153.69;2090318;28;20168;-69
2022/02/10 19:15:59;;;;;;;131.10;101.38;;;;;;;8.23;59.58;102156.47;2090648;28;20206;-69
2022/02/10 19:16:59;;;;;;;127.80;99.53;;;;;;;8.23;59.56;102168.31;2090296;28;20195;-69
2022/02/10 19:18:03;;;;;;;123.73;94.27;;;;;;;8.18;59.21;102146.53;2090617;28;20176;-69
2022/02/10 19:19:04;;;;;;;122.97;95.43;;;;;;;8.29;59.24;102166.78;2090398;28;20187;-69
2022/02/10 19:20:05;;;;;;;105.72;82.35;;;;;;;8.23;59.14;102145.41;2090100;28;20187;-69
2022/02/10 19:21:06;;;;;;;81.20;65.07;;;;;;;8.26;59.33;102158.47;2089314;28;20264;-69
2022/02/10 19:22:06;;;;;;;81.43;61.47;;;;;;;7.77;59.67;102097.97;2090004;28;20184;-69
2022/02/10 19:23:08;;;;;;;77.67;60.67;;;;;;;7.54;59.76;102069.72;2089643;28;20260;-69
2022/02/10 19:24:08;;;;;;;65.55;52.45;;;;;;;8.20;59.94;102160.00;2090567;28;20172;-69
2022/02/10 19:25:12;;;;;;;78.30;60.53;;;;;;;8.17;59.56;102160.72;2089661;28;20212;-69
2022/02/10 19:26:13;;;;;;;76.20;57.28;;;;;;;8.14;58.91;102161.47;2089831;28;20270;-69
2022/02/10 19:27:16;;;;;;;53.50;43.03;;;;;;;8.14;59.94;102162.25;2090383;28;20689;-69
2022/02/10 19:28:17;;;;;;;59.47;48.47;;;;;;;7.48;59.24;102045.63;2090623;28;20179;-69
2022/02/10 19:29:20;;;;;;;84.07;64.67;;;;;;;8.16;58.75;102146.09;2090259;28;20211;-69
2022/02/10 19:30:23;;;;;;;83.15;62.40;;;;;;;8.09;58.88;102135.00;2089873;28;20181;-69
2022/02/10 19:31:25;;;;;;;70.18;55.78;;;;;;;8.01;59.04;102119.53;2089172;28;20206;-69
2022/02/10 19:32:29;;;;;;;65.32;53.45;;;;;;;8.13;58.91;102140.53;2089703;28;20238;-69
2022/02/10 19:33:30;;;;;;;91.35;66.40;;;;;;;7.62;57.72;102057.59;2089629;28;20657;-69
2022/02/10 19:34:34;;;;;;;90.77;69.53;;;;;;;7.71;57.23;102077.44;2090452;28;20605;-69
2022/02/10 19:35:42;;;;;;;89.43;65.07;;;;;;;7.22;56.71;102007.13;2090236;28;20176;-69
2022/02/10 19:36:43;;;;;;;87.55;67.88;;;;;;;8.02;56.76;102142.41;2090366;28;20248;-69
2022/02/10 19:37:52;;;;;;;74.77;56.20;;;;;;;7.95;57.45;102156.91;2090323;28;20168;-69
2022/02/10 19:38:53;;;;;;;76.13;57.92;;;;;;;7.79;57.73;102142.53;2090183;28;20545;-69
2022/02/10 19:39:59;;;;;;;83.57;61.50;;;;;;;7.19;57.65;102088.63;2090022;28;20172;-69
2022/02/10 19:41:00;;;;;;;60.72;46.85;;;;;;;7.77;59.42;102150.41;2089161;28;20255;-69
2022/02/10 19:42:00;;;;;;;66.17;49.43;;;;;;;7.71;59.38;102142.84;2089004;28;20172;-69
2022/02/10 19:43:01;;;;;;;59.07;42.67;;;;;;;7.73;59.47;102146.00;2088960;28;20180;-69
2022/02/10 19:44:04;;;;;;;66.77;52.33;;;;;;;6.43;59.42;101953.31;2090439;28;20211;-69
2022/02/10 19:45:06;;;;;;;64.57;49.22;;;;;;;6.83;59.78;102025.88;2089884;28;20225;-69
2022/02/10 19:46:06;;;;;;;74.53;57.95;;;;;;;7.60;59.55;102151.00;2090410;28;20172;-69
2022/02/10 19:47:07;;;;;;;76.73;62.37;;;;;;;6.85;59.82;102028.28;2090279;28;20204;-69
2022/02/10 19:48:07;;;;;;;56.23;41.27;;;;;;;7.51;59.94;102152.44;2090473;28;20773;-69
2022/02/10 19:49:13;;;;;;;40.73;34.17;;;;;;;7.42;60.33;102135.38;2090155;28;20687;-69
2022/02/10 19:50:17;;;;;;;39.42;31.77;;;;;;;7.35;59.94;102130.59;2089899;28;20157;-69
2022/02/10 19:51:18;;;;;;;42.72;35.97;;;;;;;7.41;60.48;102133.78;2089027;28;20172;-69
2022/02/10 19:52:20;;;;;;;50.92;40.65;;;;;;;7.36;60.33;102143.19;2089496;28;20205;-69